createdAt,value
2023-04-03T00:01:12.508Z,2.84
2023-04-03T00:03:42.410Z,2.73
2023-04-03T00:06:12.164Z,2.84
2023-04-03T00:08:41.204Z,2.66
2023-04-03T00:11:09.088Z,2.71
2023-04-03T00:13:38.716Z,2.49
2023-04-03T00:16:07.598Z,2.49
2023-04-03T00:18:35.357Z,2.34
2023-04-03T00:21:03.225Z,2.34
2023-04-03T00:23:31.176Z,2.34
2023-04-03T00:25:58.960Z,2.13
2023-04-03T00:28:27.762Z,2.17
2023-04-03T00:30:56.924Z,2.27
2023-04-03T00:33:25.471Z,2.27
2023-04-03T00:35:53.805Z,2.28
2023-04-03T00:38:21.588Z,2.30
2023-04-03T00:40:50.743Z,2.46
2023-04-03T00:43:20.730Z,2.41
2023-04-03T00:45:50.337Z,2.30
2023-04-03T00:48:22.687Z,2.19
2023-04-03T00:50:51.362Z,2.27
2023-04-03T00:53:25.011Z,2.17
2023-04-03T00:55:53.755Z,2.06
2023-04-03T00:58:24.319Z,2.10
2023-04-03T01:00:58.409Z,2.06
2023-04-03T01:03:27.767Z,2.14
2023-04-03T01:05:56.597Z,2.16
2023-04-03T01:08:24.929Z,2.13
2023-04-03T01:10:52.705Z,2.12
2023-04-03T01:13:26.654Z,2.17
2023-04-03T01:15:55.509Z,2.23
2023-04-03T01:18:26.163Z,1.96
2023-04-03T01:21:44.317Z,2.23
2023-04-03T01:24:29.854Z,2.29
2023-04-03T01:26:57.838Z,2.23
2023-04-03T01:29:25.954Z,1.96
2023-04-03T01:31:57.503Z,1.88
2023-04-03T01:34:26.855Z,1.77
2023-04-03T01:36:55.381Z,1.57
2023-04-03T01:39:24.011Z,1.66
2023-04-03T01:41:52.302Z,1.98
2023-04-03T01:44:27.571Z,2.28
2023-04-03T01:46:56.826Z,1.89
2023-04-03T01:49:26.629Z,1.70
2023-04-03T01:51:54.504Z,1.70
2023-04-03T01:54:22.277Z,1.70
2023-04-03T01:56:50.172Z,1.79
2023-04-03T01:59:20.183Z,1.61
2023-04-03T02:01:48.081Z,1.64
2023-04-03T02:04:17.567Z,1.56
2023-04-03T02:06:45.440Z,1.38
2023-04-03T02:09:13.255Z,1.48
2023-04-03T02:11:41.242Z,1.64
2023-04-03T02:14:09.155Z,1.51
2023-04-03T02:16:37.816Z,1.26
2023-04-03T02:19:05.938Z,1.55
2023-04-03T02:21:35.105Z,1.35
2023-04-03T02:24:02.944Z,1.23
2023-04-03T02:26:30.724Z,0.94
2023-04-03T02:28:58.574Z,0.78
2023-04-03T02:31:26.317Z,0.78
2023-04-03T02:33:54.725Z,0.79
2023-04-03T02:36:22.646Z,0.67
2023-04-03T02:38:56.791Z,0.60
2023-04-03T02:41:26.489Z,0.91
2023-04-03T02:43:55.200Z,0.91
2023-04-03T02:46:22.983Z,0.93
2023-04-03T02:48:50.769Z,0.97
2023-04-03T02:51:18.755Z,0.89
2023-04-03T02:53:46.596Z,1.13
2023-04-03T02:56:21.241Z,0.99
2023-04-03T02:58:49.372Z,1.22
2023-04-03T03:01:18.594Z,1.05
2023-04-03T03:03:46.800Z,1.24
2023-04-03T03:06:18.288Z,1.45
2023-04-03T03:08:46.196Z,1.35
2023-04-03T03:11:13.940Z,1.26
2023-04-03T03:13:43.419Z,1.04
2023-04-03T03:16:11.296Z,1.08
2023-04-03T03:18:39.048Z,0.98
2023-04-03T03:21:07.171Z,0.91
2023-04-03T03:23:37.053Z,0.85
2023-04-03T03:26:08.601Z,0.84
2023-04-03T03:28:37.379Z,0.85
2023-04-03T03:31:09.163Z,0.89
2023-04-03T03:33:38.901Z,0.66
2023-04-03T03:36:07.328Z,0.64
2023-04-03T03:38:35.259Z,0.54
2023-04-03T03:41:06.970Z,0.44
2023-04-03T03:43:36.254Z,0.53
2023-04-03T03:46:06.053Z,0.48
2023-04-03T03:48:35.189Z,0.40
2023-04-03T03:51:03.118Z,0.31
2023-04-03T03:53:35.101Z,0.35
2023-04-03T03:56:07.550Z,0.35
2023-04-03T03:58:37.417Z,0.41
2023-04-03T04:01:06.494Z,0.24
2023-04-03T04:03:38.133Z,0.30
2023-04-03T04:06:07.118Z,0.32
2023-04-03T04:08:35.205Z,0.39
2023-04-03T04:11:03.228Z,0.30
2023-04-03T04:13:31.469Z,0.27
2023-04-03T04:15:59.489Z,0.30
2023-04-03T04:18:27.352Z,0.40
2023-04-03T04:20:56.579Z,0.33
2023-04-03T04:23:24.653Z,0.17
2023-04-03T04:25:53.368Z,0.29
2023-04-03T04:28:21.924Z,0.42
2023-04-03T04:30:52.577Z,0.29
2023-04-03T04:33:21.604Z,0.43
2023-04-03T04:35:50.195Z,0.32
2023-04-03T04:38:22.426Z,0.35
2023-04-03T04:40:52.381Z,0.10
2023-04-03T04:43:20.864Z,0.10
2023-04-03T04:46:02.613Z,0.33
2023-04-03T04:48:32.849Z,0.45
2023-04-03T04:51:01.238Z,0.17
2023-04-03T04:53:30.600Z,0.21
2023-04-03T04:55:58.419Z,0.23
2023-04-03T04:58:27.295Z,0.39
2023-04-03T05:01:01.179Z,0.34
2023-04-03T05:03:29.681Z,0.07
2023-04-03T05:05:57.601Z,0.07
2023-04-03T05:08:25.488Z,0.10
2023-04-03T05:10:56.078Z,0.20
2023-04-03T05:13:25.500Z,0.23
2023-04-03T05:15:53.696Z,0.38
2023-04-03T05:18:31.785Z,0.79
2023-04-03T05:21:04.103Z,0.72
2023-04-03T05:23:32.530Z,0.59
2023-04-03T05:26:04.413Z,0.46
2023-04-03T05:28:32.762Z,0.50
2023-04-03T05:31:01.686Z,0.64
2023-04-03T05:33:35.241Z,0.55
2023-04-03T05:36:05.433Z,0.66
2023-04-03T05:38:36.310Z,0.51
2023-04-03T05:41:06.239Z,0.67
2023-04-03T05:43:35.487Z,0.68
2023-04-03T05:46:04.029Z,0.64
2023-04-03T05:48:32.620Z,0.75
2023-04-03T05:51:00.714Z,0.98
2023-04-03T05:53:33.503Z,0.85
2023-04-03T05:56:06.054Z,1.22
2023-04-03T05:58:39.484Z,1.26
2023-04-03T06:01:07.488Z,1.45
2023-04-03T06:03:37.869Z,1.68
2023-04-03T06:06:08.981Z,1.53
2023-04-03T06:08:36.793Z,1.34
2023-04-03T06:11:06.019Z,1.60
2023-04-03T06:13:36.183Z,1.69
2023-04-03T06:16:05.289Z,1.47
2023-04-03T06:18:33.184Z,1.67
2023-04-03T06:21:01.870Z,1.72
2023-04-03T06:23:29.627Z,2.05
2023-04-03T06:25:57.439Z,2.10
2023-04-03T06:28:27.355Z,2.14
2023-04-03T06:30:55.210Z,2.43
2023-04-03T06:33:23.824Z,2.34
2023-04-03T06:35:51.797Z,2.30
2023-04-03T06:38:19.783Z,2.46
2023-04-03T06:40:48.029Z,2.83
2023-04-03T06:43:15.902Z,2.86
2023-04-03T06:45:45.475Z,2.72
2023-04-03T06:48:13.284Z,2.92
2023-04-03T06:50:41.555Z,3.10
2023-04-03T06:53:09.392Z,3.15
2023-04-03T06:55:37.874Z,3.24
2023-04-03T06:58:06.409Z,3.26
2023-04-03T07:00:34.417Z,2.96
2023-04-03T07:03:03.679Z,3.02
2023-04-03T07:05:31.750Z,3.29
2023-04-03T07:07:59.744Z,3.38
2023-04-03T07:10:27.717Z,3.34
2023-04-03T07:12:56.003Z,3.26
2023-04-03T07:15:23.990Z,3.25
2023-04-03T07:17:51.740Z,3.59
2023-04-03T07:20:20.956Z,3.72
2023-04-03T07:22:48.755Z,3.81
2023-04-03T07:25:17.314Z,3.88
2023-04-03T07:27:45.144Z,4.10
2023-04-03T07:30:15.001Z,4.15
2023-04-03T07:32:43.134Z,4.09
2023-04-03T07:35:11.218Z,4.19
2023-04-03T07:37:42.503Z,4.07
2023-04-03T07:40:11.368Z,4.12
2023-04-03T07:42:39.386Z,3.78
2023-04-03T07:45:07.949Z,3.76
2023-04-03T07:47:37.597Z,3.87
2023-04-03T07:50:06.016Z,4.03
2023-04-03T07:52:34.004Z,4.14
2023-04-03T07:55:03.134Z,4.52
2023-04-03T07:57:31.016Z,4.60
2023-04-03T07:59:58.885Z,4.39
2023-04-03T08:02:27.849Z,4.47
2023-04-03T08:04:56.177Z,4.65
2023-04-03T08:07:24.127Z,4.63
2023-04-03T08:09:52.004Z,4.75
2023-04-03T08:12:21.363Z,4.52
2023-04-03T08:14:49.175Z,4.03
2023-04-03T08:17:16.955Z,4.29
2023-04-03T08:19:44.838Z,4.14
2023-04-03T08:22:14.468Z,3.81
2023-04-03T08:24:52.530Z,3.91
2023-04-03T08:27:30.689Z,3.73
2023-04-03T08:29:58.866Z,3.73
2023-04-03T08:32:26.990Z,4.41
2023-04-03T08:34:55.383Z,4.44
2023-04-03T08:37:24.215Z,4.56
2023-04-03T08:39:54.324Z,4.37
2023-04-03T08:42:38.966Z,4.36
2023-04-03T08:45:13.000Z,4.41
2023-04-03T08:47:44.705Z,4.39
2023-04-03T08:50:16.072Z,4.91
2023-04-03T08:52:48.249Z,5.01
2023-04-03T08:55:25.803Z,4.88
2023-04-03T08:58:02.623Z,4.87
2023-04-03T09:00:34.406Z,4.92
2023-04-03T09:03:02.442Z,5.32
2023-04-03T09:05:41.359Z,5.44
2023-04-03T09:08:20.253Z,5.17
2023-04-03T09:10:48.327Z,5.49
2023-04-03T09:13:28.933Z,5.63
2023-04-03T09:15:58.602Z,5.00
2023-04-03T09:18:32.996Z,4.89
2023-04-03T09:21:08.619Z,5.16
2023-04-03T09:23:43.160Z,5.08
2023-04-03T09:26:16.340Z,5.17
2023-04-03T09:28:49.875Z,5.24
2023-04-03T09:31:24.102Z,5.36
2023-04-03T09:33:56.465Z,5.42
2023-04-03T09:36:41.927Z,5.38
2023-04-03T09:39:14.694Z,5.55
2023-04-03T09:41:43.699Z,5.49
2023-04-03T09:44:25.158Z,5.21
2023-04-03T09:46:53.547Z,5.55
2023-04-03T09:49:22.091Z,6.01
2023-04-03T09:51:50.131Z,6.41
2023-04-03T09:54:42.055Z,6.16
2023-04-03T09:57:14.078Z,6.08
2023-04-03T09:59:46.954Z,6.07
2023-04-03T10:02:32.840Z,6.35
2023-04-03T10:05:09.405Z,6.51
2023-04-03T10:07:42.903Z,6.06
2023-04-03T10:10:21.370Z,6.03
2023-04-03T10:12:52.421Z,5.91
2023-04-03T10:15:22.484Z,5.73
2023-04-03T10:18:00.417Z,5.38
2023-04-03T10:20:38.433Z,5.08
2023-04-03T10:23:18.925Z,5.00
2023-04-03T10:25:57.326Z,5.07
2023-04-03T10:28:33.642Z,5.21
2023-04-03T10:31:13.018Z,5.70
2023-04-03T10:33:53.095Z,6.28
2023-04-03T10:36:35.900Z,6.14
2023-04-03T10:39:15.215Z,6.28
2023-04-03T10:42:00.730Z,6.25
2023-04-03T10:44:49.212Z,6.14
2023-04-03T10:47:22.858Z,5.65
2023-04-03T10:50:02.161Z,5.87
2023-04-03T10:52:40.818Z,5.84
2023-04-03T10:55:24.174Z,6.37
2023-04-03T10:57:52.487Z,6.69
2023-04-03T11:00:23.549Z,6.95
2023-04-03T11:02:58.524Z,6.77
2023-04-03T11:05:34.607Z,6.78
2023-04-03T11:08:11.274Z,6.78
2023-04-03T11:10:44.498Z,6.90
2023-04-03T11:13:17.154Z,6.98
2023-04-03T11:15:47.444Z,6.86
2023-04-03T11:18:21.340Z,6.70
2023-04-03T11:21:02.008Z,7.14
2023-04-03T11:23:45.953Z,6.50
2023-04-03T11:26:19.386Z,6.06
2023-04-03T11:28:47.984Z,5.90
2023-04-03T11:31:32.790Z,5.90
2023-04-03T11:34:14.347Z,5.86
2023-04-03T11:36:47.089Z,6.03
2023-04-03T11:39:24.522Z,6.50
2023-04-03T11:42:03.259Z,6.86
2023-04-03T11:44:39.881Z,6.65
2023-04-03T11:47:11.394Z,6.87
2023-04-03T11:50:00.852Z,7.20
2023-04-03T11:53:02.395Z,6.77
2023-04-03T11:55:56.756Z,6.98
2023-04-03T11:58:26.279Z,7.10
2023-04-03T12:01:00.476Z,6.88
2023-04-03T12:04:09.234Z,6.64
2023-04-03T12:07:10.028Z,6.45
2023-04-03T12:10:31.711Z,6.08
2023-04-03T12:13:05.015Z,6.21
2023-04-03T12:16:00.863Z,6.43
2023-04-03T12:18:44.662Z,6.40
2023-04-03T12:21:13.800Z,6.17
2023-04-03T12:24:06.886Z,6.17
2023-04-03T12:26:48.664Z,6.10
2023-04-03T12:29:24.579Z,6.06
2023-04-03T12:32:07.189Z,6.16
2023-04-03T12:34:58.080Z,6.10
2023-04-03T12:37:41.968Z,5.99
2023-04-03T12:40:18.275Z,5.98
2023-04-03T12:43:05.761Z,6.02
2023-04-03T12:45:44.952Z,5.90
2023-04-03T12:48:16.976Z,5.88
2023-04-03T12:51:07.393Z,5.91
2023-04-03T12:53:39.588Z,5.89
2023-04-03T12:56:27.722Z,6.07
2023-04-03T12:58:58.281Z,6.13
2023-04-03T13:01:28.091Z,6.14
2023-04-03T13:03:58.650Z,6.30
2023-04-03T13:06:29.893Z,6.50
2023-04-03T13:09:01.311Z,6.54
2023-04-03T13:11:32.911Z,6.55
2023-04-03T13:14:02.995Z,6.94
2023-04-03T13:16:31.879Z,7.04
2023-04-03T13:19:00.567Z,7.17
2023-04-03T13:21:32.041Z,7.16
2023-04-03T13:24:14.850Z,7.38
2023-04-03T13:26:44.705Z,7.17
2023-04-03T13:29:29.832Z,7.05
2023-04-03T13:31:59.694Z,7.50
2023-04-03T13:34:32.541Z,7.64
2023-04-03T13:37:02.267Z,7.47
2023-04-03T13:39:33.150Z,7.57
2023-04-03T13:42:03.735Z,7.27
2023-04-03T13:44:35.209Z,7.29
2023-04-03T13:47:17.308Z,6.81
2023-04-03T13:49:47.085Z,6.88
2023-04-03T13:52:30.291Z,7.07
2023-04-03T13:55:03.101Z,7.19
2023-04-03T13:57:37.303Z,7.32
2023-04-03T14:00:21.893Z,7.15
2023-04-03T14:02:50.132Z,7.01
2023-04-03T14:05:22.134Z,6.88
2023-04-03T14:07:50.048Z,6.83
2023-04-03T14:10:19.425Z,6.89
2023-04-03T14:12:47.259Z,7.05
2023-04-03T14:15:20.248Z,6.92
2023-04-03T14:17:48.295Z,6.61
2023-04-03T14:20:18.683Z,6.83
2023-04-03T14:22:46.541Z,7.12
2023-04-03T14:25:14.759Z,7.45
2023-04-03T14:27:48.540Z,7.09
2023-04-03T14:30:20.548Z,6.93
2023-04-03T14:32:49.085Z,6.83
2023-04-03T14:35:17.296Z,6.75
2023-04-03T14:37:45.795Z,6.87
2023-04-03T14:40:16.251Z,7.33
2023-04-03T14:42:48.321Z,7.21
2023-04-03T14:45:58.810Z,7.30
2023-04-03T14:48:29.326Z,7.33
2023-04-03T14:51:05.171Z,7.44
2023-04-03T14:56:07.128Z,7.54
2023-04-03T14:58:37.431Z,7.43
2023-04-03T15:01:05.296Z,7.07
2023-04-03T15:03:33.360Z,6.96
2023-04-03T15:06:01.291Z,6.64
2023-04-03T15:08:31.630Z,6.52
2023-04-03T15:10:59.570Z,6.77
2023-04-03T15:13:27.580Z,6.97
2023-04-03T15:15:56.883Z,7.02
2023-04-03T15:18:29.096Z,7.33
2023-04-03T15:20:58.704Z,7.44
2023-04-03T15:23:27.441Z,7.11
2023-04-03T15:25:56.014Z,6.86
2023-04-03T15:28:28.138Z,6.91
2023-04-03T15:30:57.371Z,6.79
2023-04-03T15:33:25.312Z,6.53
2023-04-03T15:35:54.225Z,6.55
2023-04-03T15:38:24.194Z,6.66
2023-04-03T15:40:52.136Z,6.74
2023-04-03T15:43:19.953Z,6.62
2023-04-03T15:45:47.793Z,6.88
2023-04-03T15:48:17.486Z,6.97
2023-04-03T15:50:45.992Z,6.99
2023-04-03T15:53:13.774Z,7.12
2023-04-03T15:55:42.403Z,7.22
2023-04-03T15:58:10.538Z,7.11
2023-04-03T16:00:39.038Z,7.01
2023-04-03T16:03:10.500Z,7.16
2023-04-03T16:05:41.503Z,7.45
2023-04-03T16:08:10.365Z,7.24
2023-04-03T16:10:38.481Z,6.90
2023-04-03T16:13:06.998Z,6.61
2023-04-03T16:15:36.347Z,6.64
2023-04-03T16:18:05.128Z,6.50
2023-04-03T16:20:33.365Z,6.29
2023-04-03T16:23:03.020Z,6.30
2023-04-03T16:25:32.005Z,6.42
2023-04-03T16:27:59.837Z,6.45
2023-04-03T16:30:27.881Z,6.64
2023-04-03T16:32:56.574Z,6.76
2023-04-03T16:35:24.526Z,7.01
2023-04-03T16:37:52.366Z,7.18
2023-04-03T16:40:21.642Z,7.19
2023-04-03T16:42:49.551Z,6.99
2023-04-03T16:45:17.336Z,6.95
2023-04-03T16:47:45.404Z,6.92
2023-04-03T16:50:13.463Z,6.87
2023-04-03T16:52:41.981Z,6.63
2023-04-03T16:55:10.518Z,6.47
2023-04-03T16:57:39.852Z,6.41
2023-04-03T17:00:09.734Z,6.53
2023-04-03T17:02:37.600Z,6.47
2023-04-03T17:05:06.283Z,6.53
2023-04-03T17:07:34.149Z,6.32
2023-04-03T17:10:02.029Z,6.31
2023-04-03T17:12:30.498Z,6.31
2023-04-03T17:14:59.553Z,6.11
2023-04-03T17:17:27.880Z,6.04
2023-04-03T17:19:56.854Z,6.21
2023-04-03T17:22:25.181Z,6.09
2023-04-03T17:24:53.178Z,6.11
2023-04-03T17:27:20.891Z,6.00
2023-04-03T17:29:48.793Z,5.89
2023-04-03T17:32:18.293Z,6.06
2023-04-03T17:34:47.498Z,6.12
2023-04-03T17:37:15.647Z,6.00
2023-04-03T17:39:43.490Z,6.09
2023-04-03T17:42:11.364Z,6.00
2023-04-03T17:44:39.378Z,5.97
2023-04-03T17:47:07.266Z,6.15
2023-04-03T17:49:36.459Z,5.98
2023-04-03T17:52:04.336Z,6.10
2023-04-03T17:54:32.056Z,5.93
2023-04-03T17:56:59.880Z,5.90
2023-04-03T17:59:28.294Z,5.91
2023-04-03T18:01:56.862Z,5.95
2023-04-03T18:04:25.353Z,5.98
2023-04-03T18:06:56.674Z,5.92
2023-04-03T18:09:29.923Z,5.97
2023-04-03T18:11:58.797Z,5.79
2023-04-03T18:14:28.809Z,5.57
2023-04-03T18:16:57.926Z,5.56
2023-04-03T18:19:29.033Z,5.69
2023-04-03T18:22:03.082Z,5.66
2023-04-03T18:24:34.166Z,5.63
2023-04-03T18:27:08.402Z,5.47
2023-04-03T18:29:39.633Z,5.38
2023-04-03T18:32:11.155Z,5.28
2023-04-03T18:34:38.976Z,5.25
2023-04-03T18:37:08.029Z,5.15
2023-04-03T18:39:36.170Z,5.18
2023-04-03T18:42:07.658Z,5.30
2023-04-03T18:44:38.671Z,5.29
2023-04-03T18:47:06.852Z,5.03
2023-04-03T18:49:37.085Z,4.93
2023-04-03T18:52:05.617Z,4.84
2023-04-03T18:54:37.383Z,4.94
2023-04-03T18:57:06.071Z,5.01
2023-04-03T18:59:33.997Z,4.76
2023-04-03T19:02:01.879Z,5.02
2023-04-03T19:04:30.549Z,4.76
2023-04-03T19:06:58.440Z,4.75
2023-04-03T19:09:27.063Z,5.05
2023-04-03T19:11:56.341Z,5.07
2023-04-03T19:14:24.211Z,4.87
2023-04-03T19:16:52.099Z,5.06
2023-04-03T19:19:20.025Z,5.02
2023-04-03T19:21:48.301Z,5.07
2023-04-03T19:24:16.233Z,5.01
2023-04-03T19:26:44.099Z,5.05
2023-04-03T19:29:13.232Z,4.96
2023-04-03T19:31:41.421Z,4.95
2023-04-03T19:34:09.689Z,4.94
2023-04-03T19:36:38.767Z,4.81
2023-04-03T19:39:07.074Z,4.62
2023-04-03T19:41:37.594Z,4.48
2023-04-03T19:44:27.389Z,4.15
2023-04-03T19:47:16.219Z,4.05
2023-04-03T19:50:02.617Z,3.83
2023-04-03T19:52:49.080Z,3.79
2023-04-03T19:55:36.258Z,3.77
2023-04-03T19:58:23.253Z,3.68
2023-04-03T20:01:11.430Z,3.59
2023-04-03T20:03:58.070Z,3.59
2023-04-03T20:06:44.325Z,3.50
2023-04-03T20:09:32.911Z,3.38
2023-04-03T20:12:19.834Z,3.25
2023-04-03T20:15:08.897Z,3.25
2023-04-03T20:17:57.813Z,3.21
2023-04-03T20:20:45.274Z,3.07
2023-04-03T20:23:32.406Z,3.07
2023-04-03T20:26:24.515Z,3.02
2023-04-03T20:29:11.208Z,2.88
2023-04-03T20:31:58.023Z,2.82
2023-04-03T20:34:57.268Z,2.66
2023-04-03T20:37:48.354Z,2.63
2023-04-03T20:40:35.321Z,2.53
2023-04-03T20:43:23.251Z,2.47
2023-04-03T20:46:11.190Z,2.38
2023-04-03T20:48:59.424Z,2.30
2023-04-03T20:51:47.067Z,2.20
2023-04-03T20:54:33.772Z,2.20
2023-04-03T20:57:20.946Z,2.09
2023-04-03T21:00:08.852Z,2.04
2023-04-03T21:02:58.122Z,1.96
2023-04-03T21:05:44.971Z,1.89
2023-04-03T21:09:09.670Z,1.84
2023-04-03T21:12:33.435Z,1.84
2023-04-03T21:15:47.922Z,1.92
2023-04-03T21:18:55.144Z,1.86
2023-04-03T21:21:42.146Z,1.78
2023-04-03T21:24:29.452Z,1.87
2023-04-03T21:27:15.936Z,1.73
2023-04-03T21:30:05.405Z,1.78
2023-04-03T21:32:51.716Z,1.63
2023-04-03T21:35:39.236Z,1.52
2023-04-03T21:38:27.394Z,1.43
2023-04-03T21:41:13.501Z,1.45
2023-04-03T21:44:00.397Z,1.48
2023-04-03T21:46:48.857Z,1.43
2023-04-03T21:49:35.900Z,1.33
2023-04-03T21:52:23.565Z,1.32
2023-04-03T21:55:11.199Z,1.26
2023-04-03T21:57:58.133Z,1.20
2023-04-03T22:00:44.693Z,1.11
2023-04-03T22:03:34.733Z,1.06
2023-04-03T22:06:21.251Z,1.10
2023-04-03T22:09:09.100Z,1.11
2023-04-03T22:11:55.300Z,1.08
2023-04-03T22:14:42.486Z,1.09
2023-04-03T22:17:31.390Z,1.19
2023-04-03T22:20:17.959Z,1.15
2023-04-03T22:23:04.331Z,1.20
2023-04-03T22:26:02.934Z,1.14
2023-04-03T22:28:49.232Z,1.02
2023-04-03T22:31:36.840Z,0.98
2023-04-03T22:34:24.817Z,1.12
2023-04-03T22:37:12.142Z,1.20
2023-04-03T22:39:59.023Z,1.12
2023-04-03T22:42:49.147Z,1.18
2023-04-03T22:45:35.552Z,1.17
2023-04-03T22:48:21.847Z,1.21
2023-04-03T22:51:08.888Z,1.38
2023-04-03T22:53:55.034Z,1.39
2023-04-03T22:56:41.573Z,1.25
2023-04-03T22:59:29.255Z,1.17
2023-04-03T23:02:15.569Z,1.01
2023-04-03T23:05:01.821Z,1.02
2023-04-03T23:07:48.419Z,1.10
2023-04-03T23:10:34.867Z,1.39
2023-04-03T23:13:21.301Z,1.01
2023-04-03T23:16:09.159Z,0.55
2023-04-03T23:18:55.661Z,0.54
2023-04-03T23:21:42.007Z,0.65
2023-04-03T23:24:28.436Z,0.76
2023-04-03T23:27:15.198Z,0.76
2023-04-03T23:30:02.162Z,0.77
2023-04-03T23:32:50.776Z,0.75
2023-04-03T23:35:43.409Z,0.90
2023-04-03T23:38:29.780Z,0.81
2023-04-03T23:41:16.208Z,0.81
2023-04-03T23:44:02.642Z,0.87
2023-04-03T23:46:50.320Z,0.92
2023-04-03T23:49:38.431Z,1.00
2023-04-03T23:52:24.549Z,0.85
2023-04-03T23:55:10.879Z,1.05
2023-04-03T23:57:57.504Z,0.88
